Time;durP1;ratioP1;P1;durP2;ratioP2;P2;SDS_P1;SDS_P2;PMS_P1;PMS_P2;Temp;Humidity;BMP_temperature;BMP_pressure;BME280_temperature;BME280_humidity;BME280_pressure;Samples;Min_cycle;Max_cycle;Signal;HPM_P1;HPM_P2
2022/11/22 00:01:15;;;;;;;15.00;7.88;;;;;;;;;;5071892;28;20033;-62
2022/11/22 00:03:40;;;;;;;17.23;7.68;;;;;;;;;;5056411;28;20146;-63
2022/11/22 00:06:06;;;;;;;12.43;7.35;;;;;;;;;;5072585;28;20035;-62
2022/11/22 00:08:32;;;;;;;12.82;7.53;;;;;;;;;;5068282;28;20024;-63
2022/11/22 00:10:57;;;;;;;14.57;7.57;;;;;;;;;;5072807;28;20051;-63
2022/11/22 00:13:23;;;;;;;11.95;7.75;;;;;;;;;;5073105;28;20036;-63
2022/11/22 00:15:59;;;;;;;15.68;7.53;;;;;;;;;;5072882;28;20020;-63
2022/11/22 00:18:25;;;;;;;10.27;7.30;;;;;;;;;;5072052;28;20503;-62
2022/11/22 00:20:50;;;;;;;11.55;6.97;;;;;;;;;;5072856;28;20060;-63
2022/11/22 00:23:16;;;;;;;11.07;6.63;;;;;;;;;;5073242;28;20377;-63
2022/11/22 00:25:41;;;;;;;11.68;7.47;;;;;;;;;;5071350;28;20033;-62
2022/11/22 00:28:07;;;;;;;12.02;7.55;;;;;;;;;;5072470;28;20039;-63
2022/11/22 00:30:32;;;;;;;10.57;6.95;;;;;;;;;;5073599;28;20088;-63
2022/11/22 00:32:58;;;;;;;11.23;6.82;;;;;;;;;;5073346;28;20069;-64
2022/11/22 00:35:23;;;;;;;11.98;7.25;;;;;;;;;;5073096;28;20028;-63
2022/11/22 00:37:49;;;;;;;11.95;6.97;;;;;;;;;;5073722;28;20021;-63
2022/11/22 00:40:14;;;;;;;9.90;6.80;;;;;;;;;;5073855;28;20028;-63
2022/11/22 00:42:40;;;;;;;10.20;6.68;;;;;;;;;;5073857;28;20690;-62
2022/11/22 00:45:06;;;;;;;10.77;7.28;;;;;;;;;;5073703;28;20098;-62
2022/11/22 00:47:32;;;;;;;12.13;6.72;;;;;;;;;;5073787;28;20028;-63
2022/11/22 00:49:57;;;;;;;9.75;6.53;;;;;;;;;;5073550;28;20025;-63
2022/11/22 00:52:23;;;;;;;10.18;6.63;;;;;;;;;;5039040;28;20024;-68
2022/11/22 00:54:48;;;;;;;10.95;6.50;;;;;;;;;;5073447;28;20424;-63
2022/11/22 00:57:14;;;;;;;12.02;6.78;;;;;;;;;;5073390;28;20035;-62
2022/11/22 00:59:39;;;;;;;10.38;6.57;;;;;;;;;;5073256;28;20055;-62
2022/11/22 01:02:05;;;;;;;10.30;6.88;;;;;;;;;;5073179;28;20056;-62
2022/11/22 01:04:30;;;;;;;10.52;7.05;;;;;;;;;;5073357;28;20024;-64
2022/11/22 01:06:56;;;;;;;9.50;6.60;;;;;;;;;;5038992;28;20426;-62
2022/11/22 01:09:22;;;;;;;10.27;6.68;;;;;;;;;;5073178;28;20567;-62
2022/11/22 01:11:48;;;;;;;12.35;6.47;;;;;;;;;;5072892;28;20045;-62
2022/11/22 01:14:14;;;;;;;9.65;6.45;;;;;;;;;;5073344;28;20039;-63
2022/11/22 01:16:40;;;;;;;14.38;6.95;;;;;;;;;;5071044;28;20376;-62
2022/11/22 01:19:05;;;;;;;10.77;6.55;;;;;;;;;;5071925;28;20444;-62
2022/11/22 01:21:31;;;;;;;10.95;6.88;;;;;;;;;;5072179;28;20020;-63
2022/11/22 01:23:56;;;;;;;12.25;6.50;;;;;;;;;;5072749;28;20023;-62
2022/11/22 01:26:22;;;;;;;8.52;5.70;;;;;;;;;;5071824;28;20056;-63
2022/11/22 01:28:47;;;;;;;10.45;6.57;;;;;;;;;;5072844;28;20100;-63
2022/11/22 01:31:13;;;;;;;12.27;6.55;;;;;;;;;;5072776;28;20101;-69
2022/11/22 01:33:38;;;;;;;9.60;6.00;;;;;;;;;;5053925;28;20111;-69
2022/11/22 01:36:04;;;;;;;9.52;6.68;;;;;;;;;;5071917;28;20028;-69
2022/11/22 01:38:30;;;;;;;12.65;6.53;;;;;;;;;;5054753;28;20107;-68
2022/11/22 01:40:55;;;;;;;11.45;6.57;;;;;;;;;;5072669;28;20025;-63
2022/11/22 01:43:26;;;;;;;9.13;6.10;;;;;;;;;;5054197;28;20036;-63
2022/11/22 01:45:56;;;;;;;7.57;5.75;;;;;;;;;;5071857;28;20032;-63
2022/11/22 01:48:31;;;;;;;9.65;5.78;;;;;;;;;;5070985;28;20016;-62
2022/11/22 01:51:16;;;;;;;9.07;6.00;;;;;;;;;;5070439;28;20048;-62
2022/11/22 01:53:42;;;;;;;10.65;6.88;;;;;;;;;;5071213;28;20535;-63
2022/11/22 01:56:12;;;;;;;12.90;6.68;;;;;;;;;;5072321;28;20020;-62
2022/11/22 01:58:40;;;;;;;9.88;6.00;;;;;;;;;;5071707;28;20052;-62
2022/11/22 02:01:06;;;;;;;10.52;6.10;;;;;;;;;;5072382;28;20388;-63
2022/11/22 02:03:34;;;;;;;9.15;5.90;;;;;;;;;;5071496;28;20103;-62
2022/11/22 02:06:01;;;;;;;8.57;5.70;;;;;;;;;;5071769;28;20116;-62
2022/11/22 02:08:49;;;;;;;8.98;5.72;;;;;;;;;;5072315;28;20066;-62
2022/11/22 02:11:17;;;;;;;10.73;5.72;;;;;;;;;;5071972;28;20127;-62
2022/11/22 02:13:44;;;;;;;9.57;6.30;;;;;;;;;;5071772;28;20082;-63
2022/11/22 02:16:10;;;;;;;8.50;6.10;;;;;;;;;;5071988;28;20024;-62
2022/11/22 02:18:36;;;;;;;10.50;6.55;;;;;;;;;;5072303;28;20033;-62
2022/11/22 02:21:03;;;;;;;8.25;5.80;;;;;;;;;;5072175;28;20082;-62
2022/11/22 02:23:49;;;;;;;8.75;5.85;;;;;;;;;;5072160;28;20048;-62
2022/11/22 02:26:15;;;;;;;8.55;6.05;;;;;;;;;;5071996;28;20354;-63
2022/11/22 02:28:41;;;;;;;9.25;6.00;;;;;;;;;;5072101;28;20035;-62
2022/11/22 02:31:07;;;;;;;8.85;5.88;;;;;;;;;;5072104;28;20063;-62
2022/11/22 02:33:33;;;;;;;8.88;5.50;;;;;;;;;;5072348;28;20110;-62
2022/11/22 02:35:59;;;;;;;9.10;5.93;;;;;;;;;;5072053;28;20047;-62
2022/11/22 02:38:32;;;;;;;8.13;5.63;;;;;;;;;;5072048;28;20476;-65
2022/11/22 02:41:09;;;;;;;11.50;6.00;;;;;;;;;;5072593;28;20078;-62
2022/11/22 02:43:38;;;;;;;7.95;5.22;;;;;;;;;;5072014;28;20103;-62
2022/11/22 02:46:10;;;;;;;8.45;5.53;;;;;;;;;;5071924;28;20071;-62
2022/11/22 02:48:42;;;;;;;9.98;5.82;;;;;;;;;;5074188;28;20103;-62
2022/11/22 02:51:08;;;;;;;7.80;5.57;;;;;;;;;;5075778;28;20025;-62
2022/11/22 02:53:34;;;;;;;9.68;6.03;;;;;;;;;;5075913;28;20021;-62
2022/11/22 02:55:59;;;;;;;10.85;5.90;;;;;;;;;;5057737;28;20557;-62
2022/11/22 02:58:25;;;;;;;9.32;5.60;;;;;;;;;;5075582;28;20070;-62
2022/11/22 03:00:51;;;;;;;8.98;5.85;;;;;;;;;;5075542;28;20107;-62
2022/11/22 03:03:16;;;;;;;7.72;5.65;;;;;;;;;;5075590;28;20073;-63
2022/11/22 03:05:42;;;;;;;8.48;5.78;;;;;;;;;;5075436;28;20071;-63
2022/11/22 03:08:07;;;;;;;9.38;5.45;;;;;;;;;;5075532;28;20598;-62
2022/11/22 03:10:33;;;;;;;10.52;5.85;;;;;;;;;;5075214;28;20392;-62
2022/11/22 03:12:58;;;;;;;8.65;5.15;;;;;;;;;;5075366;28;20024;-62
2022/11/22 03:15:24;;;;;;;8.10;5.45;;;;;;;;;;5075331;28;20020;-62
2022/11/22 03:17:56;;;;;;;7.78;5.63;;;;;;;;;;5075542;28;20024;-63
2022/11/22 03:20:21;;;;;;;10.88;5.93;;;;;;;;;;5075317;28;20039;-62
2022/11/22 03:22:47;;;;;;;8.45;5.75;;;;;;;;;;5075226;28;20020;-62
2022/11/22 03:25:13;;;;;;;9.10;5.38;;;;;;;;;;5075344;28;20033;-63
2022/11/22 03:27:38;;;;;;;8.63;5.65;;;;;;;;;;5075093;28;20023;-63
2022/11/22 03:30:04;;;;;;;8.48;5.68;;;;;;;;;;5057070;28;20056;-62
2022/11/22 03:32:30;;;;;;;7.15;5.72;;;;;;;;;;5074939;28;20024;-63
2022/11/22 03:34:55;;;;;;;8.18;5.47;;;;;;;;;;5075257;28;20020;-62
2022/11/22 03:37:21;;;;;;;7.25;5.28;;;;;;;;;;5074980;28;20020;-62
2022/11/22 03:39:46;;;;;;;9.45;5.28;;;;;;;;;;5074914;28;20549;-62
2022/11/22 03:42:12;;;;;;;8.95;5.95;;;;;;;;;;5074913;28;20028;-62
2022/11/22 03:44:37;;;;;;;6.68;5.40;;;;;;;;;;5074794;28;20057;-62
2022/11/22 03:47:03;;;;;;;7.55;5.25;;;;;;;;;;5074697;28;20021;-62
2022/11/22 03:49:28;;;;;;;6.85;5.22;;;;;;;;;;5074630;28;20051;-62
2022/11/22 03:51:54;;;;;;;10.02;5.47;;;;;;;;;;5074873;28;20025;-63
2022/11/22 03:54:19;;;;;;;8.98;5.70;;;;;;;;;;5074699;28;20511;-62
2022/11/22 03:56:45;;;;;;;8.57;5.50;;;;;;;;;;5074755;28;20056;-63
2022/11/22 03:59:10;;;;;;;7.68;4.80;;;;;;;;;;5074232;28;20476;-63
2022/11/22 04:01:36;;;;;;;9.10;5.90;;;;;;;;;;5074677;28;20028;-62
2022/11/22 04:04:01;;;;;;;9.63;5.60;;;;;;;;;;5074410;28;20059;-62
2022/11/22 04:06:27;;;;;;;7.25;4.82;;;;;;;;;;5074529;28;20388;-63
2022/11/22 04:08:52;;;;;;;8.90;5.53;;;;;;;;;;5074255;28;20386;-62
2022/11/22 04:11:18;;;;;;;8.20;5.35;;;;;;;;;;5074175;28;20044;-62
2022/11/22 04:16:27;;;;;;;6.97;5.00;;;;;;;;;;5074296;28;20106;-63
2022/11/22 04:18:53;;;;;;;7.45;5.18;;;;;;;;;;5056227;28;20452;-63
2022/11/22 04:21:33;;;;;;;7.85;5.32;;;;;;;;;;5056521;28;20111;-63
2022/11/22 04:26:48;;;;;;;9.52;5.57;;;;;;;;;;5074011;28;20483;-63
2022/11/22 04:29:14;;;;;;;7.88;5.00;;;;;;;;;;5073940;28;20025;-63
2022/11/22 04:34:24;;;;;;;8.20;5.60;;;;;;;;;;5074201;28;20113;-63
2022/11/22 04:36:50;;;;;;;9.43;5.38;;;;;;;;;;5073674;28;20059;-63
2022/11/22 04:39:16;;;;;;;6.95;5.53;;;;;;;;;;5073773;28;20032;-62
2022/11/22 04:41:41;;;;;;;6.85;4.93;;;;;;;;;;5073729;28;20031;-62
2022/11/22 04:46:54;;;;;;;7.03;5.07;;;;;;;;;;5073575;28;20391;-63
2022/11/22 04:49:20;;;;;;;8.05;5.35;;;;;;;;;;5073572;28;20025;-62
2022/11/22 04:54:30;;;;;;;7.97;4.80;;;;;;;;;;5073555;28;20442;-63
2022/11/22 04:56:55;;;;;;;7.88;5.07;;;;;;;;;;5073415;28;20037;-63
2022/11/22 04:59:21;;;;;;;7.88;5.55;;;;;;;;;;5073517;28;20033;-64
2022/11/22 05:01:46;;;;;;;7.55;5.20;;;;;;;;;;5073149;28;20384;-63
2022/11/22 05:04:12;;;;;;;7.10;5.40;;;;;;;;;;5055583;28;20029;-67
2022/11/22 05:06:37;;;;;;;5.97;4.70;;;;;;;;;;5073284;28;20028;-69
2022/11/22 05:09:03;;;;;;;8.35;5.70;;;;;;;;;;5073088;28;20563;-67
2022/11/22 05:11:29;;;;;;;8.10;5.38;;;;;;;;;;5072332;28;20124;-69
2022/11/22 05:13:54;;;;;;;6.68;5.03;;;;;;;;;;5073023;28;20043;-65
2022/11/22 05:16:20;;;;;;;7.47;5.30;;;;;;;;;;5073002;28;20024;-64
2022/11/22 05:18:57;;;;;;;6.82;5.47;;;;;;;;;;5072828;28;20017;-67
2022/11/22 05:21:25;;;;;;;7.30;5.40;;;;;;;;;;5073105;28;20025;-69
2022/11/22 05:23:53;;;;;;;7.10;5.53;;;;;;;;;;5072782;28;20498;-69
2022/11/22 05:26:21;;;;;;;8.15;5.03;;;;;;;;;;5072575;28;20098;-64
2022/11/22 05:28:47;;;;;;;6.43;4.88;;;;;;;;;;5071764;28;20476;-69
2022/11/22 05:31:21;;;;;;;6.35;4.45;;;;;;;;;;5071911;28;20038;-67
2022/11/22 05:33:48;;;;;;;6.47;4.90;;;;;;;;;;5072490;28;20195;-68
2022/11/22 05:36:14;;;;;;;6.25;4.55;;;;;;;;;;5072700;28;20683;-67
2022/11/22 05:38:40;;;;;;;8.00;5.07;;;;;;;;;;5072417;28;20287;-69
2022/11/22 05:41:08;;;;;;;6.65;4.60;;;;;;;;;;5071401;28;20056;-67
2022/11/22 05:43:34;;;;;;;6.80;4.95;;;;;;;;;;5072466;28;20427;-68
2022/11/22 05:46:15;;;;;;;6.55;5.40;;;;;;;;;;5070909;28;20032;-68
2022/11/22 05:48:43;;;;;;;5.95;4.75;;;;;;;;;;5071466;28;20024;-64
2022/11/22 05:51:14;;;;;;;7.20;4.95;;;;;;;;;;5071815;28;20032;-64
2022/11/22 05:53:41;;;;;;;8.02;4.90;;;;;;;;;;5072327;28;20376;-65
2022/11/22 05:56:14;;;;;;;6.90;4.45;;;;;;;;;;5072436;28;20032;-64
2022/11/22 05:58:40;;;;;;;7.38;4.90;;;;;;;;;;5072192;28;20380;-63
2022/11/22 06:01:12;;;;;;;7.88;5.00;;;;;;;;;;5072373;28;20306;-63
2022/11/22 06:03:38;;;;;;;6.78;4.78;;;;;;;;;;5072413;28;20027;-63
2022/11/22 06:06:05;;;;;;;6.35;4.72;;;;;;;;;;5072205;28;20028;-64
2022/11/22 06:08:36;;;;;;;7.97;4.93;;;;;;;;;;5072281;28;20028;-67
2022/11/22 06:11:05;;;;;;;;;;;;;;;;;;5072602;28;20049;-65
2022/11/22 06:13:39;;;;;;;8.13;5.27;;;;;;;;;;5072542;28;19912;-63
2022/11/22 06:16:06;;;;;;;7.97;5.10;;;;;;;;;;5054082;28;20681;-68
2022/11/22 06:18:32;;;;;;;6.32;4.65;;;;;;;;;;5072207;28;20108;-67
2022/11/22 06:21:00;;;;;;;6.85;4.95;;;;;;;;;;5072248;28;20020;-68
2022/11/22 06:23:26;;;;;;;6.53;5.10;;;;;;;;;;5074171;28;20108;-67
2022/11/22 06:25:56;;;;;;;7.40;5.20;;;;;;;;;;5076218;28;20026;-68
2022/11/22 06:28:22;;;;;;;6.47;4.60;;;;;;;;;;5076291;28;20035;-68
2022/11/22 06:30:48;;;;;;;8.70;5.18;;;;;;;;;;5076283;28;20468;-68
2022/11/22 06:33:13;;;;;;;6.88;4.93;;;;;;;;;;5076172;28;20207;-68
2022/11/22 06:35:39;;;;;;;7.15;5.18;;;;;;;;;;5076413;28;20059;-68
2022/11/22 06:38:04;;;;;;;5.55;4.78;;;;;;;;;;5076119;28;20413;-68
2022/11/22 06:40:29;;;;;;;6.38;4.85;;;;;;;;;;5076023;28;20025;-63
2022/11/22 06:42:55;;;;;;;6.65;4.95;;;;;;;;;;5075932;28;20062;-63
2022/11/22 06:45:20;;;;;;;6.63;4.60;;;;;;;;;;5075860;28;20051;-62
2022/11/22 06:47:46;;;;;;;6.05;4.63;;;;;;;;;;5075803;28;20056;-62
2022/11/22 06:50:12;;;;;;;7.10;5.03;;;;;;;;;;5075715;28;20499;-65
2022/11/22 06:52:37;;;;;;;8.63;5.30;;;;;;;;;;5075724;28;20275;-63
2022/11/22 06:55:03;;;;;;;6.40;5.05;;;;;;;;;;5075709;28;20487;-63
2022/11/22 06:57:28;;;;;;;6.70;4.85;;;;;;;;;;5075832;28;20029;-61
2022/11/22 06:59:54;;;;;;;9.15;5.47;;;;;;;;;;5075576;28;20052;-63
2022/11/22 07:02:19;;;;;;;6.82;4.97;;;;;;;;;;5075483;28;20106;-61
2022/11/22 07:04:45;;;;;;;7.47;5.50;;;;;;;;;;5057455;28;20065;-62
2022/11/22 07:07:10;;;;;;;6.53;5.10;;;;;;;;;;5075354;28;20052;-62
2022/11/22 07:09:37;;;;;;;7.45;5.10;;;;;;;;;;5075143;28;20035;-62
2022/11/22 07:12:03;;;;;;;8.18;5.57;;;;;;;;;;5057422;28;20035;-62
2022/11/22 07:14:29;;;;;;;6.40;4.68;;;;;;;;;;5075341;28;20472;-61
2022/11/22 07:16:55;;;;;;;5.55;4.78;;;;;;;;;;5075272;28;20036;-62
2022/11/22 07:19:20;;;;;;;8.13;4.93;;;;;;;;;;5075286;28;20047;-61
2022/11/22 07:21:46;;;;;;;8.35;5.75;;;;;;;;;;5075178;28;20391;-66
2022/11/22 07:24:11;;;;;;;7.38;5.32;;;;;;;;;;5075202;28;20134;-61
2022/11/22 07:26:37;;;;;;;8.90;5.00;;;;;;;;;;5075280;28;20052;-62
2022/11/22 07:29:03;;;;;;;8.15;5.13;;;;;;;;;;5075047;28;20564;-65
2022/11/22 07:31:29;;;;;;;6.93;5.10;;;;;;;;;;5075351;28;20024;-63
2022/11/22 07:33:56;;;;;;;5.85;4.88;;;;;;;;;;5074476;28;20506;-64
2022/11/22 07:36:22;;;;;;;7.88;5.28;;;;;;;;;;5075179;28;20028;-61
2022/11/22 07:38:48;;;;;;;6.95;4.80;;;;;;;;;;5074937;28;20472;-62
2022/11/22 07:41:15;;;;;;;6.07;4.60;;;;;;;;;;5075183;28;20028;-60
2022/11/22 07:43:41;;;;;;;7.70;5.30;;;;;;;;;;5074781;28;20491;-61
2022/11/22 07:46:16;;;;;;;6.72;5.13;;;;;;;;;;5074712;28;20067;-61
2022/11/22 07:48:41;;;;;;;6.50;4.82;;;;;;;;;;5075065;28;20380;-61
2022/11/22 07:51:07;;;;;;;7.13;5.18;;;;;;;;;;5074979;28;20061;-60
2022/11/22 07:53:34;;;;;;;6.85;5.10;;;;;;;;;;5074671;28;20093;-60
2022/11/22 07:56:04;;;;;;;5.70;4.78;;;;;;;;;;5074596;28;20024;-61
2022/11/22 07:58:30;;;;;;;7.55;5.18;;;;;;;;;;5074593;28;20025;-65
2022/11/22 08:00:56;;;;;;;7.25;4.95;;;;;;;;;;5074504;28;20325;-60
2022/11/22 08:03:21;;;;;;;7.18;5.07;;;;;;;;;;5074500;28;20275;-63
2022/11/22 08:05:46;;;;;;;6.47;4.90;;;;;;;;;;5056395;28;20115;-61
2022/11/22 08:08:12;;;;;;;6.03;4.57;;;;;;;;;;5074394;28;20025;-61
2022/11/22 08:10:38;;;;;;;6.80;4.95;;;;;;;;;;5074095;28;20048;-61
2022/11/22 08:13:04;;;;;;;7.70;4.95;;;;;;;;;;5074296;28;20025;-61
2022/11/22 08:15:30;;;;;;;6.15;5.00;;;;;;;;;;5074439;28;20371;-61
2022/11/22 08:17:57;;;;;;;6.53;4.88;;;;;;;;;;5074314;28;20486;-66
2022/11/22 08:20:23;;;;;;;6.45;5.30;;;;;;;;;;5073992;28;20507;-61
2022/11/22 08:22:49;;;;;;;6.72;5.15;;;;;;;;;;5074001;28;20101;-61
2022/11/22 08:25:14;;;;;;;6.38;5.07;;;;;;;;;;5073908;28;20029;-62
2022/11/22 08:27:42;;;;;;;7.03;4.82;;;;;;;;;;5073991;28;20029;-61
2022/11/22 08:30:09;;;;;;;7.85;5.32;;;;;;;;;;5074191;28;20345;-61
2022/11/22 08:32:35;;;;;;;5.78;4.50;;;;;;;;;;5073901;28;20028;-61
2022/11/22 08:35:01;;;;;;;6.25;5.30;;;;;;;;;;5073765;28;20028;-61
2022/11/22 08:37:26;;;;;;;6.40;4.95;;;;;;;;;;5055787;28;20380;-60
2022/11/22 08:39:52;;;;;;;7.70;5.15;;;;;;;;;;5073589;28;20028;-61
2022/11/22 08:42:18;;;;;;;6.80;5.07;;;;;;;;;;5073810;28;20052;-61
2022/11/22 08:44:43;;;;;;;6.60;5.25;;;;;;;;;;5073304;28;20438;-61
2022/11/22 08:47:09;;;;;;;6.65;4.60;;;;;;;;;;5072882;28;20032;-61
2022/11/22 08:49:37;;;;;;;7.95;4.80;;;;;;;;;;5073500;28;20026;-62
2022/11/22 08:52:02;;;;;;;6.68;4.57;;;;;;;;;;5073537;28;20483;-62
2022/11/22 08:54:28;;;;;;;7.32;5.10;;;;;;;;;;5073364;28;20052;-63
2022/11/22 08:56:53;;;;;;;7.18;5.38;;;;;;;;;;5073554;28;20071;-62
2022/11/22 08:59:19;;;;;;;7.45;5.03;;;;;;;;;;5073217;28;20033;-62
2022/11/22 09:01:44;;;;;;;6.50;4.82;;;;;;;;;;5073599;28;20020;-68
2022/11/22 09:04:11;;;;;;;5.85;4.55;;;;;;;;;;5073295;28;20437;-66
2022/11/22 09:06:37;;;;;;;5.90;4.88;;;;;;;;;;5073121;28;20035;-66
2022/11/22 09:09:05;;;;;;;7.05;4.95;;;;;;;;;;5070174;28;20472;-68
2022/11/22 09:11:30;;;;;;;6.95;5.00;;;;;;;;;;5047471;28;20044;-69
2022/11/22 09:13:56;;;;;;;8.25;4.75;;;;;;;;;;5048765;28;20032;-61
2022/11/22 09:16:22;;;;;;;7.85;5.20;;;;;;;;;;5052231;28;20043;-60
2022/11/22 09:18:47;;;;;;;6.20;4.75;;;;;;;;;;5051592;28;20397;-61
2022/11/22 09:21:16;;;;;;;6.13;4.82;;;;;;;;;;5052955;28;20025;-61
2022/11/22 09:23:44;;;;;;;6.10;5.05;;;;;;;;;;5048093;28;20134;-61
2022/11/22 09:26:13;;;;;;;7.00;4.88;;;;;;;;;;5052891;28;20021;-61
2022/11/22 09:28:38;;;;;;;6.40;4.70;;;;;;;;;;5052520;28;20021;-60
2022/11/22 09:31:06;;;;;;;8.50;5.00;;;;;;;;;;5049947;28;20036;-62
2022/11/22 09:33:34;;;;;;;5.55;4.50;;;;;;;;;;5031073;28;20101;-61
2022/11/22 09:36:08;;;;;;;6.13;4.72;;;;;;;;;;5031365;28;20025;-63
2022/11/22 09:38:35;;;;;;;6.80;4.93;;;;;;;;;;5045519;28;20029;-62
2022/11/22 09:41:16;;;;;;;6.00;4.70;;;;;;;;;;5049674;28;20075;-66
2022/11/22 09:43:56;;;;;;;6.60;4.57;;;;;;;;;;5044931;28;20033;-62
2022/11/22 09:46:45;;;;;;;6.60;4.70;;;;;;;;;;5056248;28;20087;-61
2022/11/22 09:49:24;;;;;;;6.30;4.43;;;;;;;;;;5058570;28;20017;-62
2022/11/22 09:52:02;;;;;;;7.05;5.00;;;;;;;;;;5058603;28;20028;-63
2022/11/22 09:54:55;;;;;;;6.82;5.00;;;;;;;;;;5070871;28;20027;-61
2022/11/22 09:57:25;;;;;;;6.55;4.90;;;;;;;;;;5062682;28;20056;-64
2022/11/22 10:00:01;;;;;;;5.63;4.47;;;;;;;;;;5058988;28;20021;-62
2022/11/22 10:02:39;;;;;;;6.60;4.78;;;;;;;;;;5059482;28;20104;-63
2022/11/22 10:05:16;;;;;;;8.10;5.22;;;;;;;;;;5030133;28;20037;-61
2022/11/22 10:07:47;;;;;;;6.05;4.68;;;;;;;;;;5030839;28;20029;-63
2022/11/22 10:10:23;;;;;;;7.97;4.68;;;;;;;;;;5029378;28;20496;-62
2022/11/22 10:12:58;;;;;;;5.28;4.28;;;;;;;;;;5031556;28;20037;-65
2022/11/22 10:15:43;;;;;;;6.03;4.75;;;;;;;;;;5048485;28;20148;-61
2022/11/22 10:18:23;;;;;;;7.70;5.45;;;;;;;;;;5048905;28;20086;-61
2022/11/22 10:20:48;;;;;;;8.32;5.10;;;;;;;;;;5050321;28;20423;-63
2022/11/22 10:23:23;;;;;;;8.23;4.90;;;;;;;;;;5050436;28;20035;-61
2022/11/22 10:26:01;;;;;;;7.55;4.78;;;;;;;;;;5046797;28;20041;-62
2022/11/22 10:28:34;;;;;;;6.45;4.60;;;;;;;;;;5049297;28;20575;-63
2022/11/22 10:31:17;;;;;;;6.68;5.05;;;;;;;;;;5050546;28;20496;-62
2022/11/22 10:33:57;;;;;;;6.15;4.72;;;;;;;;;;5050978;28;20033;-62
2022/11/22 10:36:52;;;;;;;7.97;5.13;;;;;;;;;;5048965;28;20481;-68
2022/11/22 10:39:24;;;;;;;6.10;4.72;;;;;;;;;;5051135;28;20032;-68
2022/11/22 10:42:22;;;;;;;7.32;5.38;;;;;;;;;;5050621;28;20384;-68
2022/11/22 10:45:23;;;;;;;6.10;4.75;;;;;;;;;;5049025;28;20025;-67
2022/11/22 10:48:09;;;;;;;7.38;4.88;;;;;;;;;;5050041;28;20028;-68
2022/11/22 10:51:02;;;;;;;6.25;4.55;;;;;;;;;;5049266;28;20029;-67
2022/11/22 10:53:53;;;;;;;8.50;5.28;;;;;;;;;;5046735;28;20443;-65
2022/11/22 10:56:45;;;;;;;7.97;4.95;;;;;;;;;;5048094;28;20114;-66
2022/11/22 10:59:30;;;;;;;6.57;4.63;;;;;;;;;;5048319;28;20025;-61
2022/11/22 11:02:15;;;;;;;6.53;4.78;;;;;;;;;;5048505;28;20032;-65
2022/11/22 11:04:42;;;;;;;5.72;4.30;;;;;;;;;;5032036;28;20086;-61
2022/11/22 11:07:16;;;;;;;6.07;4.90;;;;;;;;;;5050252;28;20105;-61
2022/11/22 11:10:16;;;;;;;5.93;4.40;;;;;;;;;;5053268;28;20053;-62
2022/11/22 11:12:57;;;;;;;9.07;5.22;;;;;;;;;;5073257;28;20104;-62
2022/11/22 11:15:33;;;;;;;7.75;5.18;;;;;;;;;;5073562;28;20043;-62
2022/11/22 11:18:06;;;;;;;4.85;4.07;;;;;;;;;;5073511;28;20029;-62
2022/11/22 11:20:40;;;;;;;8.95;5.10;;;;;;;;;;5073494;28;20099;-62
2022/11/22 11:23:05;;;;;;;5.50;4.40;;;;;;;;;;5073605;28;20024;-62
2022/11/22 11:25:39;;;;;;;7.13;4.68;;;;;;;;;;5073445;28;20469;-61
2022/11/22 11:28:17;;;;;;;6.35;4.25;;;;;;;;;;5073308;28;20029;-64
2022/11/22 11:30:51;;;;;;;6.60;4.60;;;;;;;;;;5073201;28;20032;-62
2022/11/22 11:33:37;;;;;;;7.05;4.57;;;;;;;;;;5073523;28;20365;-61
2022/11/22 11:36:10;;;;;;;5.72;4.25;;;;;;;;;;5073107;28;20028;-62
2022/11/22 11:38:49;;;;;;;5.97;4.43;;;;;;;;;;5055052;28;20040;-61
2022/11/22 11:41:21;;;;;;;5.28;4.10;;;;;;;;;;5073376;28;20070;-61
2022/11/22 11:43:48;;;;;;;6.47;4.28;;;;;;;;;;5073356;28;20032;-62
2022/11/22 11:46:19;;;;;;;5.63;4.30;;;;;;;;;;5073108;28;20035;-61
2022/11/22 11:48:46;;;;;;;5.50;4.40;;;;;;;;;;5038880;28;20025;-62
2022/11/22 11:51:18;;;;;;;5.47;4.60;;;;;;;;;;5072823;28;20028;-62
2022/11/22 11:53:59;;;;;;;5.70;4.25;;;;;;;;;;5072601;28;20065;-61
2022/11/22 11:56:51;;;;;;;6.13;4.28;;;;;;;;;;5041799;28;20054;-61
2022/11/22 11:59:21;;;;;;;5.30;4.25;;;;;;;;;;5082722;28;20096;-65
2022/11/22 12:01:57;;;;;;;7.95;4.80;;;;;;;;;;5079866;28;20025;-61
2022/11/22 12:04:26;;;;;;;4.90;4.40;;;;;;;;;;5086989;28;20038;-62
2022/11/22 12:07:03;;;;;;;5.93;4.43;;;;;;;;;;5092299;28;20024;-62
2022/11/22 12:09:42;;;;;;;5.88;4.50;;;;;;;;;;5092744;28;20031;-62
2022/11/22 12:12:17;;;;;;;5.03;4.05;;;;;;;;;;5092650;28;20114;-62
2022/11/22 12:14:51;;;;;;;5.20;4.07;;;;;;;;;;5092692;28;20387;-62
2022/11/22 12:17:29;;;;;;;5.82;4.45;;;;;;;;;;5092648;28;20052;-62
2022/11/22 12:20:03;;;;;;;6.10;4.28;;;;;;;;;;5092453;28;20028;-62
2022/11/22 12:23:01;;;;;;;5.55;4.22;;;;;;;;;;5092980;28;20487;-62
2022/11/22 12:25:38;;;;;;;6.65;4.35;;;;;;;;;;5078687;28;20403;-62
2022/11/22 12:28:24;;;;;;;4.90;4.32;;;;;;;;;;5092461;28;20171;-61
2022/11/22 12:30:54;;;;;;;6.38;4.20;;;;;;;;;;5092305;28;20020;-62
2022/11/22 12:33:26;;;;;;;5.72;4.18;;;;;;;;;;5092301;28;20020;-62
2022/11/22 12:35:54;;;;;;;7.43;3.88;;;;;;;;;;5091829;28;20047;-64
2022/11/22 12:38:25;;;;;;;4.53;4.05;;;;;;;;;;5092434;28;20020;-62
2022/11/22 12:40:55;;;;;;;6.75;4.57;;;;;;;;;;5092248;28;20023;-65
2022/11/22 12:44:10;;;;;;;5.10;3.87;;;;;;;;;;5092253;28;20407;-62
2022/11/22 12:46:45;;;;;;;5.85;4.00;;;;;;;;;;5029120;28;20513;-62
2022/11/22 12:49:36;;;;;;;5.28;4.10;;;;;;;;;;5067795;28;20043;-62
2022/11/22 12:52:18;;;;;;;5.45;4.20;;;;;;;;;;5092052;28;20024;-62
2022/11/22 12:54:55;;;;;;;4.55;3.78;;;;;;;;;;5092048;28;20024;-63
2022/11/22 12:57:42;;;;;;;5.72;4.10;;;;;;;;;;5091846;28;20024;-63
2022/11/22 13:00:20;;;;;;;5.70;4.13;;;;;;;;;;5075564;28;20020;-62
2022/11/22 13:03:00;;;;;;;4.80;4.20;;;;;;;;;;5091854;28;20129;-61
2022/11/22 13:05:44;;;;;;;4.60;3.78;;;;;;;;;;5073484;28;20479;-62
2022/11/22 13:08:27;;;;;;;5.30;3.85;;;;;;;;;;5092012;28;20076;-62
2022/11/22 13:11:12;;;;;;;5.10;4.15;;;;;;;;;;5091493;28;20217;-62
2022/11/22 13:13:46;;;;;;;4.97;3.85;;;;;;;;;;5091587;28;20081;-62
2022/11/22 13:16:12;;;;;;;5.85;3.70;;;;;;;;;;5091773;28;20050;-62
2022/11/22 13:18:48;;;;;;;4.88;3.67;;;;;;;;;;5084325;28;20071;-62
2022/11/22 13:21:29;;;;;;;4.75;3.83;;;;;;;;;;5066740;28;20028;-62
2022/11/22 13:24:13;;;;;;;4.82;3.88;;;;;;;;;;5071189;28;20036;-61
2022/11/22 13:26:51;;;;;;;6.63;4.03;;;;;;;;;;5071071;28;20031;-62
2022/11/22 13:29:32;;;;;;;4.60;3.75;;;;;;;;;;5071071;28;20035;-61
2022/11/22 13:32:10;;;;;;;5.50;3.92;;;;;;;;;;5070552;28;20032;-64
2022/11/22 13:34:41;;;;;;;4.60;3.83;;;;;;;;;;5059545;28;20032;-62
2022/11/22 13:37:11;;;;;;;4.50;3.90;;;;;;;;;;5078220;28;20013;-70
2022/11/22 13:39:44;;;;;;;6.13;3.78;;;;;;;;;;5066958;28;20028;-61
2022/11/22 13:42:39;;;;;;;5.07;3.92;;;;;;;;;;5091308;28;20695;-64
2022/11/22 13:45:22;;;;;;;5.07;3.55;;;;;;;;;;5077995;28;20139;-61
2022/11/22 13:47:49;;;;;;;5.10;4.07;;;;;;;;;;5080112;28;20063;-61
2022/11/22 13:50:39;;;;;;;5.38;3.70;;;;;;;;;;5081290;28;20016;-63
2022/11/22 13:53:20;;;;;;;;;;;;;;;;;;5076919;28;20375;-61
2022/11/22 13:55:46;;;;;;;5.57;3.58;;;;;;;;;;5079587;28;20387;-61
2022/11/22 13:58:37;;;;;;;4.80;3.58;;;;;;;;;;5071719;28;20028;-61
2022/11/22 14:01:03;;;;;;;4.68;3.60;;;;;;;;;;5034392;28;20046;-60
2022/11/22 14:03:35;;;;;;;4.75;3.70;;;;;;;;;;5052672;28;20607;-60
2022/11/22 14:06:19;;;;;;;5.15;3.80;;;;;;;;;;5070930;28;20050;-60
2022/11/22 14:08:46;;;;;;;4.07;3.55;;;;;;;;;;5070747;28;20016;-61
2022/11/22 14:11:37;;;;;;;5.22;3.53;;;;;;;;;;5070253;28;20044;-62
2022/11/22 14:14:24;;;;;;;4.88;3.42;;;;;;;;;;5070465;28;20496;-61
2022/11/22 14:17:08;;;;;;;8.18;3.58;;;;;;;;;;5081963;28;20039;-61
2022/11/22 14:19:49;;;;;;;4.40;3.55;;;;;;;;;;5085078;28;20119;-62
2022/11/22 14:22:21;;;;;;;5.15;3.72;;;;;;;;;;5070311;28;20036;-61
2022/11/22 14:25:04;;;;;;;5.32;3.30;;;;;;;;;;5069132;28;20029;-60
2022/11/22 14:27:54;;;;;;;4.60;3.40;;;;;;;;;;5070781;28;20040;-61
2022/11/22 14:30:35;;;;;;;5.28;3.85;;;;;;;;;;5070319;28;20025;-62
2022/11/22 14:33:03;;;;;;;5.00;3.55;;;;;;;;;;5071421;28;20492;-61
2022/11/22 14:35:37;;;;;;;4.95;3.67;;;;;;;;;;5059739;28;20028;-61
2022/11/22 14:38:22;;;;;;;5.57;3.28;;;;;;;;;;5061890;28;20523;-61
2022/11/22 14:40:48;;;;;;;4.15;3.47;;;;;;;;;;5065925;28;20424;-63
2022/11/22 14:43:31;;;;;;;4.35;3.55;;;;;;;;;;5061633;28;20029;-61
2022/11/22 14:46:15;;;;;;;5.75;3.70;;;;;;;;;;5065053;28;20024;-62
2022/11/22 14:49:07;;;;;;;6.30;3.67;;;;;;;;;;5063558;28;20033;-69
2022/11/22 14:51:34;;;;;;;5.47;3.08;;;;;;;;;;5089165;28;20841;-63
2022/11/22 14:54:02;;;;;;;4.78;3.75;;;;;;;;;;5094710;28;20027;-62
2022/11/22 14:56:35;;;;;;;5.47;3.78;;;;;;;;;;5094542;28;20027;-62
2022/11/22 14:59:00;;;;;;;4.82;3.35;;;;;;;;;;5094498;28;20121;-64
2022/11/22 15:02:03;;;;;;;4.78;3.30;;;;;;;;;;5088078;28;20459;-61
2022/11/22 15:04:45;;;;;;;5.63;3.30;;;;;;;;;;5080622;28;20063;-62
2022/11/22 15:07:33;;;;;;;5.80;3.67;;;;;;;;;;5065056;28;20074;-63
2022/11/22 15:10:36;;;;;;;3.67;3.30;;;;;;;;;;5089046;28;20032;-62
2022/11/22 15:13:26;;;;;;;3.88;3.15;;;;;;;;;;5078622;28;20035;-64
2022/11/22 15:15:55;;;;;;;6.18;3.38;;;;;;;;;;5076320;28;20480;-62
2022/11/22 15:18:33;;;;;;;4.72;3.47;;;;;;;;;;5070118;28;20025;-62
2022/11/22 15:21:17;;;;;;;3.95;3.42;;;;;;;;;;5065757;28;20047;-61